sensor_id;sensor_type;location;lat;lon;timestamp;pressure;altitude;pressure_sealevel;temperature
15453;BMP280;7827;53.594;9.938;2022-12-13T00:01:54;147511.88;;;-3.15
15453;BMP280;7827;53.594;9.938;2022-12-13T00:04:24;147498.25;;;-3.20
15453;BMP280;7827;53.594;9.938;2022-12-13T00:06:53;147521.75;;;-3.11
15453;BMP280;7827;53.594;9.938;2022-12-13T00:09:22;147536.63;;;-3.05
15453;BMP280;7827;53.594;9.938;2022-12-13T00:11:50;147545.31;;;-3.01
15453;BMP280;7827;53.594;9.938;2022-12-13T00:14:20;147547.75;;;-3.00
15453;BMP280;7827;53.594;9.938;2022-12-13T00:16:49;147553.97;;;-2.98
15453;BMP280;7827;53.594;9.938;2022-12-13T00:19:19;147570.06;;;-2.92
15453;BMP280;7827;53.594;9.938;2022-12-13T00:21:49;147575.06;;;-2.90
15453;BMP280;7827;53.594;9.938;2022-12-13T00:24:17;147563.91;;;-2.94
15453;BMP280;7827;53.594;9.938;2022-12-13T00:26:45;147540.34;;;-3.03
15453;BMP280;7827;53.594;9.938;2022-12-13T00:29:15;147527.97;;;-3.08
15453;BMP280;7827;53.594;9.938;2022-12-13T00:31:44;147514.31;;;-3.14
15453;BMP280;7827;53.594;9.938;2022-12-13T00:34:28;147514.31;;;-3.14
15453;BMP280;7827;53.594;9.938;2022-12-13T00:36:57;147523.03;;;-3.10
15453;BMP280;7827;53.594;9.938;2022-12-13T00:39:26;147527.97;;;-3.08
15453;BMP280;7827;53.594;9.938;2022-12-13T00:41:55;147534.16;;;-3.06
15453;BMP280;7827;53.594;9.938;2022-12-13T00:44:23;147550.25;;;-2.99
15453;BMP280;7827;53.594;9.938;2022-12-13T00:46:52;147568.84;;;-2.92
15453;BMP280;7827;53.594;9.938;2022-12-13T00:49:20;147572.56;;;-2.91
15453;BMP280;7827;53.594;9.938;2022-12-13T00:51:50;147552.75;;;-2.98
15453;BMP280;7827;53.594;9.938;2022-12-13T00:54:30;147532.91;;;-3.06
15453;BMP280;7827;53.594;9.938;2022-12-13T00:56:58;147537.88;;;-3.04
15453;BMP280;7827;53.594;9.938;2022-12-13T00:59:27;147532.91;;;-3.06
15453;BMP280;7827;53.594;9.938;2022-12-13T01:01:55;147540.34;;;-3.03
15453;BMP280;7827;53.594;9.938;2022-12-13T01:04:23;147545.31;;;-3.01
15453;BMP280;7827;53.594;9.938;2022-12-13T01:06:53;147550.25;;;-2.99
15453;BMP280;7827;53.594;9.938;2022-12-13T01:09:24;147537.88;;;-3.04
15453;BMP280;7827;53.594;9.938;2022-12-13T01:11:57;147542.81;;;-3.02
15453;BMP280;7827;53.594;9.938;2022-12-13T01:14:26;147551.47;;;-2.99
15453;BMP280;7827;53.594;9.938;2022-12-13T01:16:55;147563.91;;;-2.94
15453;BMP280;7827;53.594;9.938;2022-12-13T01:19:26;147575.06;;;-2.90
15453;BMP280;7827;53.594;9.938;2022-12-13T01:21:57;147575.06;;;-2.90
15453;BMP280;7827;53.594;9.938;2022-12-13T01:24:26;147570.06;;;-2.92
15453;BMP280;7827;53.594;9.938;2022-12-13T01:26:55;147587.41;;;-2.85
15453;BMP280;7827;53.594;9.938;2022-12-13T01:29:24;147588.69;;;-2.84
15453;BMP280;7827;53.594;9.938;2022-12-13T01:31:53;147571.34;;;-2.91
15453;BMP280;7827;53.594;9.938;2022-12-13T01:34:23;147580.00;;;-2.88
15453;BMP280;7827;53.594;9.938;2022-12-13T01:36:55;147582.47;;;-2.87
15453;BMP280;7827;53.594;9.938;2022-12-13T01:39:26;147573.78;;;-2.90
15453;BMP280;7827;53.594;9.938;2022-12-13T01:41:55;147578.78;;;-2.88
15453;BMP280;7827;53.594;9.938;2022-12-13T01:45:08;147584.97;;;-2.86
15453;BMP280;7827;53.594;9.938;2022-12-13T01:47:46;147584.97;;;-2.86
15453;BMP280;7827;53.594;9.938;2022-12-13T01:50:20;147594.84;;;-2.82
15453;BMP280;7827;53.594;9.938;2022-12-13T01:52:53;147604.78;;;-2.78
15453;BMP280;7827;53.594;9.938;2022-12-13T01:55:31;147608.50;;;-2.76
15453;BMP280;7827;53.594;9.938;2022-12-13T01:58:09;147609.72;;;-2.76
15453;BMP280;7827;53.594;9.938;2022-12-13T02:00:39;147614.72;;;-2.74
15453;BMP280;7827;53.594;9.938;2022-12-13T02:03:09;147612.22;;;-2.75
15453;BMP280;7827;53.594;9.938;2022-12-13T02:05:55;147617.16;;;-2.73
15453;BMP280;7827;53.594;9.938;2022-12-13T02:08:28;147623.38;;;-2.70
15453;BMP280;7827;53.594;9.938;2022-12-13T02:11:03;147623.38;;;-2.70
15453;BMP280;7827;53.594;9.938;2022-12-13T02:13:34;147637.00;;;-2.65
15453;BMP280;7827;53.594;9.938;2022-12-13T02:16:11;147634.50;;;-2.66
15453;BMP280;7827;53.594;9.938;2022-12-13T02:19:08;147638.22;;;-2.64
15453;BMP280;7827;53.594;9.938;2022-12-13T02:21:54;147639.47;;;-2.64
15453;BMP280;7827;53.594;9.938;2022-12-13T02:24:47;147634.50;;;-2.66
15453;BMP280;7827;53.594;9.938;2022-12-13T02:27:42;147653.09;;;-2.58
15453;BMP280;7827;53.594;9.938;2022-12-13T02:30:23;147665.53;;;-2.53
15453;BMP280;7827;53.594;9.938;2022-12-13T02:33:23;147661.75;;;-2.55
15453;BMP280;7827;53.594;9.938;2022-12-13T02:36:05;147655.59;;;-2.57
15453;BMP280;7827;53.594;9.938;2022-12-13T02:38:44;147641.94;;;-2.63
15453;BMP280;7827;53.594;9.938;2022-12-13T02:41:25;147637.00;;;-2.65
15453;BMP280;7827;53.594;9.938;2022-12-13T02:44:00;147645.69;;;-2.61
15453;BMP280;7827;53.594;9.938;2022-12-13T02:46:35;147656.81;;;-2.57
15453;BMP280;7827;53.594;9.938;2022-12-13T02:49:08;147670.47;;;-2.51
15453;BMP280;7827;53.594;9.938;2022-12-13T02:51:39;147681.63;;;-2.47
15453;BMP280;7827;53.594;9.938;2022-12-13T02:54:07;147684.13;;;-2.46
15453;BMP280;7827;53.594;9.938;2022-12-13T02:56:35;147696.50;;;-2.41
15453;BMP280;7827;53.594;9.938;2022-12-13T02:59:11;147696.50;;;-2.41
15453;BMP280;7827;53.594;9.938;2022-12-13T03:01:54;147706.44;;;-2.37
15453;BMP280;7827;53.594;9.938;2022-12-13T03:04:50;147705.16;;;-2.38
15453;BMP280;7827;53.594;9.938;2022-12-13T03:07:43;147703.94;;;-2.38
15453;BMP280;7827;53.594;9.938;2022-12-13T03:10:19;147717.59;;;-2.33
15453;BMP280;7827;53.594;9.938;2022-12-13T03:12:55;147713.88;;;-2.34
15453;BMP280;7827;53.594;9.938;2022-12-13T03:15:52;147703.94;;;-2.38
15453;BMP280;7827;53.594;9.938;2022-12-13T03:18:27;147706.44;;;-2.37
15453;BMP280;7827;53.594;9.938;2022-12-13T03:20:58;147706.44;;;-2.37
15453;BMP280;7827;53.594;9.938;2022-12-13T03:23:27;147711.38;;;-2.35
15453;BMP280;7827;53.594;9.938;2022-12-13T03:26:00;147713.88;;;-2.34
15453;BMP280;7827;53.594;9.938;2022-12-13T03:28:29;147715.09;;;-2.34
15453;BMP280;7827;53.594;9.938;2022-12-13T03:30:58;147708.88;;;-2.36
15453;BMP280;7827;53.594;9.938;2022-12-13T03:33:27;147707.66;;;-2.37
15453;BMP280;7827;53.594;9.938;2022-12-13T03:35:56;147726.25;;;-2.29
15453;BMP280;7827;53.594;9.938;2022-12-13T03:38:26;147743.59;;;-2.22
15453;BMP280;7827;53.594;9.938;2022-12-13T03:40:59;147744.84;;;-2.22
15453;BMP280;7827;53.594;9.938;2022-12-13T03:43:29;147748.56;;;-2.20
15453;BMP280;7827;53.594;9.938;2022-12-13T03:45:57;147752.28;;;-2.19
15453;BMP280;7827;53.594;9.938;2022-12-13T03:48:27;147757.25;;;-2.17
15453;BMP280;7827;53.594;9.938;2022-12-13T03:50:55;147753.50;;;-2.18
15453;BMP280;7827;53.594;9.938;2022-12-13T03:53:25;147736.16;;;-2.25
15453;BMP280;7827;53.594;9.938;2022-12-13T03:56:03;147737.41;;;-2.25
15453;BMP280;7827;53.594;9.938;2022-12-13T03:58:34;147747.31;;;-2.21
15453;BMP280;7827;53.594;9.938;2022-12-13T04:01:07;147746.06;;;-2.21
15453;BMP280;7827;53.594;9.938;2022-12-13T04:03:39;147737.41;;;-2.25
15453;BMP280;7827;53.594;9.938;2022-12-13T04:06:09;147732.47;;;-2.27
15453;BMP280;7827;53.594;9.938;2022-12-13T04:08:38;147706.44;;;-2.37
15453;BMP280;7827;53.594;9.938;2022-12-13T04:11:07;147691.56;;;-2.43
15453;BMP280;7827;53.594;9.938;2022-12-13T04:13:50;147702.72;;;-2.39
15453;BMP280;7827;53.594;9.938;2022-12-13T04:16:18;147692.78;;;-2.42
15453;BMP280;7827;53.594;9.938;2022-12-13T04:18:48;147699.00;;;-2.40
15453;BMP280;7827;53.594;9.938;2022-12-13T04:21:16;147680.41;;;-2.47
15453;BMP280;7827;53.594;9.938;2022-12-13T04:23:45;147667.97;;;-2.52
15453;BMP280;7827;53.594;9.938;2022-12-13T04:26:13;147669.25;;;-2.52
15453;BMP280;7827;53.594;9.938;2022-12-13T04:28:42;147681.63;;;-2.47
15453;BMP280;7827;53.594;9.938;2022-12-13T04:31:17;147695.28;;;-2.42
15453;BMP280;7827;53.594;9.938;2022-12-13T04:33:45;147706.44;;;-2.37
15453;BMP280;7827;53.594;9.938;2022-12-13T04:36:15;147713.88;;;-2.34
15453;BMP280;7827;53.594;9.938;2022-12-13T04:38:59;147708.88;;;-2.36
15453;BMP280;7827;53.594;9.938;2022-12-13T04:41:34;147713.88;;;-2.34
15453;BMP280;7827;53.594;9.938;2022-12-13T04:44:05;147728.75;;;-2.28
15453;BMP280;7827;53.594;9.938;2022-12-13T04:46:53;147741.13;;;-2.23
15453;BMP280;7827;53.594;9.938;2022-12-13T04:49:27;147746.06;;;-2.21
15453;BMP280;7827;53.594;9.938;2022-12-13T04:51:57;147758.47;;;-2.16
15453;BMP280;7827;53.594;9.938;2022-12-13T04:54:28;147762.19;;;-2.15
15453;BMP280;7827;53.594;9.938;2022-12-13T04:57:05;147769.66;;;-2.12
15453;BMP280;7827;53.594;9.938;2022-12-13T04:59:35;147774.59;;;-2.10
15453;BMP280;7827;53.594;9.938;2022-12-13T05:02:05;147793.19;;;-2.02
15453;BMP280;7827;53.594;9.938;2022-12-13T05:04:34;147803.13;;;-1.98
15453;BMP280;7827;53.594;9.938;2022-12-13T05:07:03;147811.78;;;-1.95
15453;BMP280;7827;53.594;9.938;2022-12-13T05:09:32;147813.06;;;-1.94
15453;BMP280;7827;53.594;9.938;2022-12-13T05:12:00;147818.00;;;-1.93
15453;BMP280;7827;53.594;9.938;2022-12-13T05:14:29;147825.44;;;-1.90
15453;BMP280;7827;53.594;9.938;2022-12-13T05:16:59;147830.38;;;-1.88
15453;BMP280;7827;53.594;9.938;2022-12-13T05:19:28;147842.81;;;-1.83
15453;BMP280;7827;53.594;9.938;2022-12-13T05:21:58;147845.25;;;-1.82
15453;BMP280;7827;53.594;9.938;2022-12-13T05:24:30;147857.69;;;-1.77
15453;BMP280;7827;53.594;9.938;2022-12-13T05:26:59;147862.63;;;-1.75
15453;BMP280;7827;53.594;9.938;2022-12-13T05:29:47;147875.06;;;-1.70
15453;BMP280;7827;53.594;9.938;2022-12-13T05:32:15;147872.56;;;-1.71
15453;BMP280;7827;53.594;9.938;2022-12-13T05:34:44;147877.50;;;-1.69
15453;BMP280;7827;53.594;9.938;2022-12-13T05:37:12;147872.56;;;-1.71
15453;BMP280;7827;53.594;9.938;2022-12-13T05:39:42;147886.22;;;-1.65
15453;BMP280;7827;53.594;9.938;2022-12-13T05:42:10;147882.50;;;-1.67
15453;BMP280;7827;53.594;9.938;2022-12-13T05:44:38;147886.22;;;-1.65
15453;BMP280;7827;53.594;9.938;2022-12-13T05:47:06;147897.38;;;-1.61
15453;BMP280;7827;53.594;9.938;2022-12-13T05:49:35;147897.38;;;-1.61
15453;BMP280;7827;53.594;9.938;2022-12-13T05:52:05;147909.78;;;-1.56
15453;BMP280;7827;53.594;9.938;2022-12-13T05:54:33;147916.00;;;-1.53
15453;BMP280;7827;53.594;9.938;2022-12-13T05:57:03;147907.28;;;-1.57
15453;BMP280;7827;53.594;9.938;2022-12-13T05:59:32;147924.66;;;-1.50
15453;BMP280;7827;53.594;9.938;2022-12-13T06:02:00;147949.47;;;-1.40
15453;BMP280;7827;53.594;9.938;2022-12-13T06:04:29;147990.41;;;-1.24
15453;BMP280;7827;53.594;9.938;2022-12-13T06:06:58;148033.84;;;-1.06
15453;BMP280;7827;53.594;9.938;2022-12-13T06:09:26;148053.69;;;-0.98
15453;BMP280;7827;53.594;9.938;2022-12-13T06:11:54;148073.59;;;-0.91
15453;BMP280;7827;53.594;9.938;2022-12-13T06:14:28;148092.19;;;-0.83
15453;BMP280;7827;53.594;9.938;2022-12-13T06:16:57;148110.81;;;-0.76
15453;BMP280;7827;53.594;9.938;2022-12-13T06:19:25;148102.09;;;-0.79
15453;BMP280;7827;53.594;9.938;2022-12-13T06:21:54;148090.94;;;-0.84
15453;BMP280;7827;53.594;9.938;2022-12-13T06:24:22;148108.31;;;-0.77
15453;BMP280;7827;53.594;9.938;2022-12-13T06:26:52;148108.31;;;-0.77
15453;BMP280;7827;53.594;9.938;2022-12-13T06:29:21;148078.53;;;-0.89
15453;BMP280;7827;53.594;9.938;2022-12-13T06:31:56;148064.88;;;-0.94
15453;BMP280;7827;53.594;9.938;2022-12-13T06:34:31;148063.63;;;-0.95
15453;BMP280;7827;53.594;9.938;2022-12-13T06:37:01;148033.84;;;-1.06
15453;BMP280;7827;53.594;9.938;2022-12-13T06:39:30;148004.09;;;-1.18
15453;BMP280;7827;53.594;9.938;2022-12-13T06:42:09;147997.84;;;-1.21
15453;BMP280;7827;53.594;9.938;2022-12-13T06:44:48;147999.09;;;-1.20
15453;BMP280;7827;53.594;9.938;2022-12-13T06:47:24;147997.84;;;-1.21
15453;BMP280;7827;53.594;9.938;2022-12-13T06:49:58;148001.56;;;-1.19
15453;BMP280;7827;53.594;9.938;2022-12-13T06:52:32;147995.38;;;-1.22
15453;BMP280;7827;53.594;9.938;2022-12-13T06:55:00;148000.34;;;-1.20
15453;BMP280;7827;53.594;9.938;2022-12-13T06:57:31;147996.63;;;-1.21
15453;BMP280;7827;53.594;9.938;2022-12-13T07:00:00;147984.19;;;-1.26
15453;BMP280;7827;53.594;9.938;2022-12-13T07:02:30;147982.97;;;-1.27
15453;BMP280;7827;53.594;9.938;2022-12-13T07:05:00;147984.19;;;-1.26
15453;BMP280;7827;53.594;9.938;2022-12-13T07:07:28;147970.59;;;-1.32
15453;BMP280;7827;53.594;9.938;2022-12-13T07:09:58;147968.09;;;-1.33
15453;BMP280;7827;53.594;9.938;2022-12-13T07:12:26;147971.81;;;-1.31
15453;BMP280;7827;53.594;9.938;2022-12-13T07:14:54;147968.09;;;-1.33
15453;BMP280;7827;53.594;9.938;2022-12-13T07:17:22;147960.63;;;-1.36
15453;BMP280;7827;53.594;9.938;2022-12-13T07:20:05;147966.88;;;-1.33
15453;BMP280;7827;53.594;9.938;2022-12-13T07:22:36;147971.81;;;-1.31
15453;BMP280;7827;53.594;9.938;2022-12-13T07:25:13;147970.59;;;-1.32
15453;BMP280;7827;53.594;9.938;2022-12-13T07:27:57;147942.03;;;-1.43
15453;BMP280;7827;53.594;9.938;2022-12-13T07:30:30;147939.53;;;-1.44
15453;BMP280;7827;53.594;9.938;2022-12-13T07:33:00;147934.59;;;-1.46
15453;BMP280;7827;53.594;9.938;2022-12-13T07:35:30;147944.53;;;-1.42
15453;BMP280;7827;53.594;9.938;2022-12-13T07:38:04;147959.41;;;-1.36
15453;BMP280;7827;53.594;9.938;2022-12-13T07:40:33;147968.09;;;-1.33
15453;BMP280;7827;53.594;9.938;2022-12-13T07:43:03;147979.25;;;-1.28
15453;BMP280;7827;53.594;9.938;2022-12-13T07:45:32;147986.69;;;-1.25
15453;BMP280;7827;53.594;9.938;2022-12-13T07:48:04;148004.09;;;-1.18
15453;BMP280;7827;53.594;9.938;2022-12-13T07:50:34;148015.25;;;-1.14
15453;BMP280;7827;53.594;9.938;2022-12-13T07:53:05;148026.41;;;-1.09
15453;BMP280;7827;53.594;9.938;2022-12-13T07:55:34;148028.91;;;-1.08
15453;BMP280;7827;53.594;9.938;2022-12-13T07:58:07;148033.84;;;-1.06
15453;BMP280;7827;53.594;9.938;2022-12-13T08:00:37;148036.34;;;-1.05
15453;BMP280;7827;53.594;9.938;2022-12-13T08:03:06;148040.06;;;-1.04
15453;BMP280;7827;53.594;9.938;2022-12-13T08:05:42;148043.78;;;-1.02
15453;BMP280;7827;53.594;9.938;2022-12-13T08:08:10;148049.97;;;-1.00
15453;BMP280;7827;53.594;9.938;2022-12-13T08:10:39;148058.69;;;-0.97
15453;BMP280;7827;53.594;9.938;2022-12-13T08:13:08;148058.69;;;-0.97
15453;BMP280;7827;53.594;9.938;2022-12-13T08:15:37;148064.88;;;-0.94
15453;BMP280;7827;53.594;9.938;2022-12-13T08:18:05;148076.03;;;-0.90
15453;BMP280;7827;53.594;9.938;2022-12-13T08:20:33;148077.31;;;-0.89
15453;BMP280;7827;53.594;9.938;2022-12-13T08:23:03;148078.53;;;-0.89
15453;BMP280;7827;53.594;9.938;2022-12-13T08:25:32;148085.97;;;-0.86
15453;BMP280;7827;53.594;9.938;2022-12-13T08:28:00;148082.25;;;-0.87
15453;BMP280;7827;53.594;9.938;2022-12-13T08:30:31;148071.06;;;-0.92
15453;BMP280;7827;53.594;9.938;2022-12-13T08:32:59;148083.47;;;-0.87
15453;BMP280;7827;53.594;9.938;2022-12-13T08:35:31;148081.03;;;-0.88
15453;BMP280;7827;53.594;9.938;2022-12-13T08:38:02;148088.47;;;-0.85
15453;BMP280;7827;53.594;9.938;2022-12-13T08:40:31;148100.88;;;-0.80
15453;BMP280;7827;53.594;9.938;2022-12-13T08:43:01;148099.66;;;-0.80
15453;BMP280;7827;53.594;9.938;2022-12-13T08:45:30;148116.97;;;-0.73
15453;BMP280;7827;53.594;9.938;2022-12-13T08:48:01;148118.25;;;-0.73
15453;BMP280;7827;53.594;9.938;2022-12-13T08:50:30;148115.75;;;-0.74
15453;BMP280;7827;53.594;9.938;2022-12-13T08:52:58;148123.22;;;-0.71
15453;BMP280;7827;53.594;9.938;2022-12-13T08:55:28;148131.94;;;-0.67
15453;BMP280;7827;53.594;9.938;2022-12-13T08:58:03;148145.53;;;-0.62
15453;BMP280;7827;53.594;9.938;2022-12-13T09:00:36;148148.03;;;-0.61
15453;BMP280;7827;53.594;9.938;2022-12-13T09:03:07;148159.22;;;-0.56
15453;BMP280;7827;53.594;9.938;2022-12-13T09:05:36;148160.44;;;-0.56
15453;BMP280;7827;53.594;9.938;2022-12-13T09:08:05;148150.56;;;-0.60
15453;BMP280;7827;53.594;9.938;2022-12-13T09:11:01;148160.44;;;-0.56
15453;BMP280;7827;53.594;9.938;2022-12-13T09:13:47;148182.78;;;-0.47
15453;BMP280;7827;53.594;9.938;2022-12-13T09:16:18;148201.41;;;-0.40
15453;BMP280;7827;53.594;9.938;2022-12-13T09:18:51;148231.25;;;-0.28
15453;BMP280;7827;53.594;9.938;2022-12-13T09:21:22;148249.88;;;-0.20
15453;BMP280;7827;53.594;9.938;2022-12-13T09:23:59;148261.06;;;-0.16
15453;BMP280;7827;53.594;9.938;2022-12-13T09:26:30;148269.72;;;-0.12
15453;BMP280;7827;53.594;9.938;2022-12-13T09:29:04;148272.22;;;-0.11
15453;BMP280;7827;53.594;9.938;2022-12-13T09:31:37;148278.41;;;-0.09
15453;BMP280;7827;53.594;9.938;2022-12-13T09:34:07;148304.53;;;0.01
15453;BMP280;7827;53.594;9.938;2022-12-13T09:36:36;148308.25;;;0.03
15453;BMP280;7827;53.594;9.938;2022-12-13T09:39:05;148308.25;;;0.03
15453;BMP280;7827;53.594;9.938;2022-12-13T09:41:38;148307.00;;;0.02
15453;BMP280;7827;53.594;9.938;2022-12-13T09:44:17;148307.00;;;0.02
15453;BMP280;7827;53.594;9.938;2022-12-13T09:47:03;148309.50;;;0.03
15453;BMP280;7827;53.594;9.938;2022-12-13T09:49:43;148312.00;;;0.04
15453;BMP280;7827;53.594;9.938;2022-12-13T09:52:23;148299.53;;;-0.01
15453;BMP280;7827;53.594;9.938;2022-12-13T09:54:59;148307.00;;;0.02
15453;BMP280;7827;53.594;9.938;2022-12-13T09:57:36;148312.00;;;0.04
15453;BMP280;7827;53.594;9.938;2022-12-13T10:00:12;148321.91;;;0.08
15453;BMP280;7827;53.594;9.938;2022-12-13T10:02:44;148326.91;;;0.10
15453;BMP280;7827;53.594;9.938;2022-12-13T10:05:27;148341.81;;;0.16
15453;BMP280;7827;53.594;9.938;2022-12-13T10:08:10;148341.81;;;0.16
15453;BMP280;7827;53.594;9.938;2022-12-13T10:10:39;148336.78;;;0.14
15453;BMP280;7827;53.594;9.938;2022-12-13T10:13:18;148340.53;;;0.16
15453;BMP280;7827;53.594;9.938;2022-12-13T10:15:52;148340.53;;;0.16
15453;BMP280;7827;53.594;9.938;2022-12-13T10:18:32;148344.25;;;0.17
15453;BMP280;7827;53.594;9.938;2022-12-13T10:21:04;148341.81;;;0.16
15453;BMP280;7827;53.594;9.938;2022-12-13T10:23:34;148346.75;;;0.18
15453;BMP280;7827;53.594;9.938;2022-12-13T10:26:23;148361.66;;;0.24
15453;BMP280;7827;53.594;9.938;2022-12-13T10:29:03;148384.03;;;0.33
15453;BMP280;7827;53.594;9.938;2022-12-13T10:31:39;148425.00;;;0.49
15453;BMP280;7827;53.594;9.938;2022-12-13T10:34:21;148478.47;;;0.71
15453;BMP280;7827;53.594;9.938;2022-12-13T10:36:51;148464.78;;;0.65
15453;BMP280;7827;53.594;9.938;2022-12-13T10:39:41;148500.84;;;0.80
15453;BMP280;7827;53.594;9.938;2022-12-13T10:42:14;148475.97;;;0.70
15453;BMP280;7827;53.594;9.938;2022-12-13T10:45:12;148505.81;;;0.82
15453;BMP280;7827;53.594;9.938;2022-12-13T10:47:42;148548.09;;;0.98
15453;BMP280;7827;53.594;9.938;2022-12-13T10:50:24;148570.47;;;1.07
15453;BMP280;7827;53.594;9.938;2022-12-13T10:52:54;148577.94;;;1.10
15453;BMP280;7827;53.594;9.938;2022-12-13T10:55:28;148544.38;;;0.97
15453;BMP280;7827;53.594;9.938;2022-12-13T10:58:00;148509.53;;;0.83
15453;BMP280;7827;53.594;9.938;2022-12-13T11:00:39;148457.34;;;0.62
15453;BMP280;7827;53.594;9.938;2022-12-13T11:03:27;148462.28;;;0.64
15453;BMP280;7827;53.594;9.938;2022-12-13T11:06:04;148449.88;;;0.59
15453;BMP280;7827;53.594;9.938;2022-12-13T11:08:33;148457.34;;;0.62
15453;BMP280;7827;53.594;9.938;2022-12-13T11:11:04;148567.97;;;1.06
15453;BMP280;7827;53.594;9.938;2022-12-13T11:13:37;148575.44;;;1.09
15453;BMP280;7827;53.594;9.938;2022-12-13T11:16:22;148582.88;;;1.12
15453;BMP280;7827;53.594;9.938;2022-12-13T11:18:55;148560.50;;;1.03
15453;BMP280;7827;53.594;9.938;2022-12-13T11:21:27;148535.63;;;0.94
15453;BMP280;7827;53.594;9.938;2022-12-13T11:24:00;148533.19;;;0.93
15453;BMP280;7827;53.594;9.938;2022-12-13T11:26:34;148515.75;;;0.86
15453;BMP280;7827;53.594;9.938;2022-12-13T11:29:28;148484.72;;;0.73
15453;BMP280;7827;53.594;9.938;2022-12-13T11:32:12;148478.47;;;0.71
15453;BMP280;7827;53.594;9.938;2022-12-13T11:34:59;148498.34;;;0.79
15453;BMP280;7827;53.594;9.938;2022-12-13T11:37:35;148514.53;;;0.85
15453;BMP280;7827;53.594;9.938;2022-12-13T11:40:15;148517.00;;;0.86
15453;BMP280;7827;53.594;9.938;2022-12-13T11:42:49;148520.72;;;0.88
15453;BMP280;7827;53.594;9.938;2022-12-13T11:45:26;148513.25;;;0.85
15453;BMP280;7827;53.594;9.938;2022-12-13T11:48:05;148500.84;;;0.80
15453;BMP280;7827;53.594;9.938;2022-12-13T11:50:42;148471.03;;;0.68
15453;BMP280;7827;53.594;9.938;2022-12-13T11:53:23;148490.88;;;0.76
15453;BMP280;7827;53.594;9.938;2022-12-13T11:56:04;148479.72;;;0.71
15453;BMP280;7827;53.594;9.938;2022-12-13T11:58:41;148488.44;;;0.75
15453;BMP280;7827;53.594;9.938;2022-12-13T12:01:37;148478.47;;;0.71
15453;BMP280;7827;53.594;9.938;2022-12-13T12:04:18;148488.44;;;0.75
15453;BMP280;7827;53.594;9.938;2022-12-13T12:06:56;148495.88;;;0.78
15453;BMP280;7827;53.594;9.938;2022-12-13T12:09:54;148490.88;;;0.76
15453;BMP280;7827;53.594;9.938;2022-12-13T12:12:31;148482.19;;;0.72
15453;BMP280;7827;53.594;9.938;2022-12-13T12:15:07;148484.72;;;0.73
15453;BMP280;7827;53.594;9.938;2022-12-13T12:17:42;148490.88;;;0.76
15453;BMP280;7827;53.594;9.938;2022-12-13T12:20:17;148473.47;;;0.69
15453;BMP280;7827;53.594;9.938;2022-12-13T12:23:02;148488.44;;;0.75
15453;BMP280;7827;53.594;9.938;2022-12-13T12:25:44;148475.97;;;0.70
15453;BMP280;7827;53.594;9.938;2022-12-13T12:28:26;148463.56;;;0.65
15453;BMP280;7827;53.594;9.938;2022-12-13T12:31:13;148479.72;;;0.71
15453;BMP280;7827;53.594;9.938;2022-12-13T12:33:57;148472.25;;;0.68
15453;BMP280;7827;53.594;9.938;2022-12-13T12:36:46;148471.03;;;0.68
15453;BMP280;7827;53.594;9.938;2022-12-13T12:39:33;148480.94;;;0.72
15453;BMP280;7827;53.594;9.938;2022-12-13T12:42:29;148480.94;;;0.72
15453;BMP280;7827;53.594;9.938;2022-12-13T12:45:43;148475.97;;;0.70
15453;BMP280;7827;53.594;9.938;2022-12-13T12:48:45;148477.19;;;0.70
15453;BMP280;7827;53.594;9.938;2022-12-13T12:51:40;148498.34;;;0.79
15453;BMP280;7827;53.594;9.938;2022-12-13T12:54:31;148503.34;;;0.81
15453;BMP280;7827;53.594;9.938;2022-12-13T12:57:11;148515.75;;;0.86
15453;BMP280;7827;53.594;9.938;2022-12-13T12:59:54;148535.63;;;0.94
15453;BMP280;7827;53.594;9.938;2022-12-13T13:02:37;148525.72;;;0.90
15453;BMP280;7827;53.594;9.938;2022-12-13T13:05:18;148529.44;;;0.91
15453;BMP280;7827;53.594;9.938;2022-12-13T13:07:57;148535.63;;;0.94
15453;BMP280;7827;53.594;9.938;2022-12-13T13:10:27;148523.22;;;0.89
15453;BMP280;7827;53.594;9.938;2022-12-13T13:12:56;148538.13;;;0.95
15453;BMP280;7827;53.594;9.938;2022-12-13T13:15:55;148543.09;;;0.96
15453;BMP280;7827;53.594;9.938;2022-12-13T13:18:47;148545.59;;;0.97
15453;BMP280;7827;53.594;9.938;2022-12-13T13:21:45;148558.00;;;1.02
15453;BMP280;7827;53.594;9.938;2022-12-13T13:24:22;148560.50;;;1.03
15453;BMP280;7827;53.594;9.938;2022-12-13T13:26:54;148543.09;;;0.96
15453;BMP280;7827;53.594;9.938;2022-12-13T13:29:35;148540.63;;;0.96
15453;BMP280;7827;53.594;9.938;2022-12-13T13:32:26;148551.81;;;1.00
15453;BMP280;7827;53.594;9.938;2022-12-13T13:38:53;148564.22;;;1.05
15453;BMP280;7827;53.594;9.938;2022-12-13T13:41:55;148550.53;;;0.99
15453;BMP280;7827;53.594;9.938;2022-12-13T13:48:11;148538.13;;;0.95
15453;BMP280;7827;53.594;9.938;2022-12-13T13:58:44;148536.91;;;0.94
15453;BMP280;7827;53.594;9.938;2022-12-13T14:01:59;148523.22;;;0.89
15453;BMP280;7827;53.594;9.938;2022-12-13T14:05:12;148520.72;;;0.88
15453;BMP280;7827;53.594;9.938;2022-12-13T14:08:18;148520.72;;;0.88
15453;BMP280;7827;53.594;9.938;2022-12-13T14:17:52;148502.06;;;0.80
15453;BMP280;7827;53.594;9.938;2022-12-13T14:21:15;148472.25;;;0.68
15453;BMP280;7827;53.594;9.938;2022-12-13T14:24:04;148466.03;;;0.66
15453;BMP280;7827;53.594;9.938;2022-12-13T14:26:49;148458.56;;;0.63
15453;BMP280;7827;53.594;9.938;2022-12-13T14:29:26;148478.47;;;0.71
15453;BMP280;7827;53.594;9.938;2022-12-13T14:31:56;148462.28;;;0.64
15453;BMP280;7827;53.594;9.938;2022-12-13T14:34:29;148466.03;;;0.66
15453;BMP280;7827;53.594;9.938;2022-12-13T14:37:00;148446.16;;;0.58
15453;BMP280;7827;53.594;9.938;2022-12-13T14:39:29;148453.59;;;0.61
15453;BMP280;7827;53.594;9.938;2022-12-13T14:42:13;148446.16;;;0.58
15453;BMP280;7827;53.594;9.938;2022-12-13T14:44:47;148443.66;;;0.57
15453;BMP280;7827;53.594;9.938;2022-12-13T14:47:16;148446.16;;;0.58
15453;BMP280;7827;53.594;9.938;2022-12-13T14:49:52;148451.09;;;0.60
15453;BMP280;7827;53.594;9.938;2022-12-13T14:52:24;148434.97;;;0.53
15453;BMP280;7827;53.594;9.938;2022-12-13T14:54:57;148438.69;;;0.55
15453;BMP280;7827;53.594;9.938;2022-12-13T14:57:29;148418.84;;;0.47
15453;BMP280;7827;53.594;9.938;2022-12-13T15:00:00;148426.28;;;0.50
15453;BMP280;7827;53.594;9.938;2022-12-13T15:02:36;148396.47;;;0.38
15453;BMP280;7827;53.594;9.938;2022-12-13T15:05:06;148396.47;;;0.38
15453;BMP280;7827;53.594;9.938;2022-12-13T15:07:36;148387.75;;;0.35
15453;BMP280;7827;53.594;9.938;2022-12-13T15:10:20;148386.53;;;0.34
15453;BMP280;7827;53.594;9.938;2022-12-13T15:12:51;148387.75;;;0.35
15453;BMP280;7827;53.594;9.938;2022-12-13T15:15:26;148376.56;;;0.30
15453;BMP280;7827;53.594;9.938;2022-12-13T15:18:14;148372.84;;;0.29
15453;BMP280;7827;53.594;9.938;2022-12-13T15:20:49;148359.16;;;0.23
15453;BMP280;7827;53.594;9.938;2022-12-13T15:23:29;148344.25;;;0.17